createdAt,value
2022-08-22T00:00:59.882Z,23.55
2022-08-22T00:02:59.228Z,23.60
2022-08-22T00:06:41.710Z,23.57
2022-08-22T00:12:12.588Z,23.55
2022-08-22T00:18:07.486Z,23.55
2022-08-22T00:23:52.780Z,23.55
2022-08-22T00:29:19.515Z,23.54
2022-08-22T00:35:07.928Z,23.54
2022-08-22T00:40:55.921Z,23.53
2022-08-22T00:46:29.051Z,23.52
2022-08-22T00:52:00.479Z,23.52
2022-08-22T00:57:48.478Z,23.51
2022-08-22T01:03:42.705Z,23.50
2022-08-22T01:09:33.401Z,23.50
2022-08-22T01:15:00.576Z,23.49
2022-08-22T01:20:40.413Z,23.49
2022-08-22T01:26:55.960Z,23.47
2022-08-22T01:33:12.987Z,23.46
2022-08-22T01:38:52.713Z,23.48
2022-08-22T01:44:44.994Z,23.48
2022-08-22T01:50:19.129Z,23.47
2022-08-22T01:55:54.227Z,23.47
2022-08-22T02:01:36.347Z,23.46
2022-08-22T02:07:31.947Z,23.46
2022-08-22T02:13:12.562Z,23.46
2022-08-22T02:19:15.619Z,23.44
2022-08-22T02:25:06.979Z,23.44
2022-08-22T02:30:47.159Z,23.44
2022-08-22T02:36:42.164Z,23.44
2022-08-22T02:42:28.837Z,23.42
2022-08-22T02:48:17.931Z,23.43
2022-08-22T02:53:54.573Z,23.41
2022-08-22T02:59:37.137Z,23.41
2022-08-22T03:05:14.739Z,23.40
2022-08-22T03:10:43.535Z,23.40
2022-08-22T03:16:16.576Z,23.40
2022-08-22T03:21:59.905Z,23.40
2022-08-22T03:27:33.745Z,23.38
2022-08-22T03:33:01.982Z,23.37
2022-08-22T03:38:32.879Z,23.37
2022-08-22T03:44:00.504Z,23.36
2022-08-22T03:49:47.002Z,23.38
2022-08-22T03:55:34.930Z,23.35
2022-08-22T04:01:28.695Z,23.35
2022-08-22T04:07:28.575Z,23.37
2022-08-22T04:13:29.336Z,23.33
2022-08-22T04:19:09.248Z,23.35
2022-08-22T04:24:38.635Z,23.34
2022-08-22T04:30:06.663Z,23.34
2022-08-22T04:35:46.401Z,23.35
2022-08-22T04:41:14.029Z,23.34
2022-08-22T04:46:45.788Z,23.33
2022-08-22T04:52:07.419Z,23.33
2022-08-22T04:57:51.002Z,23.34
2022-08-22T05:03:17.142Z,23.33
2022-08-22T05:08:40.719Z,23.32
2022-08-22T05:14:16.506Z,23.32
2022-08-22T05:19:40.794Z,23.29
2022-08-22T05:25:09.708Z,23.31
2022-08-22T05:30:35.685Z,23.30
2022-08-22T05:36:20.530Z,23.30
2022-08-22T05:41:42.728Z,23.29
2022-08-22T05:47:31.907Z,23.31
2022-08-22T05:53:18.374Z,23.29
2022-08-22T05:58:40.333Z,23.28
2022-08-22T06:04:08.020Z,23.30
2022-08-22T06:10:11.769Z,23.29
2022-08-22T06:15:52.051Z,23.29
2022-08-22T06:21:21.289Z,23.28
2022-08-22T06:26:48.799Z,23.30
2022-08-22T06:32:31.556Z,23.30
2022-08-22T06:38:03.769Z,23.31
2022-08-22T06:43:25.786Z,23.31
2022-08-22T06:48:49.289Z,23.32
2022-08-22T06:54:19.708Z,23.33
2022-08-22T06:59:44.072Z,23.32
2022-08-22T07:05:10.111Z,23.32
2022-08-22T07:10:31.999Z,23.33
2022-08-22T07:15:57.661Z,23.36
2022-08-22T07:21:46.406Z,23.40
2022-08-22T07:27:12.356Z,23.43
2022-08-22T07:32:50.987Z,23.43
2022-08-22T07:38:18.477Z,23.43
2022-08-22T07:43:57.344Z,23.43
2022-08-22T07:49:27.031Z,23.42
2022-08-22T07:54:55.338Z,23.43
2022-08-22T08:00:20.489Z,23.45
2022-08-22T08:05:45.282Z,23.45
2022-08-22T08:11:10.025Z,23.44
2022-08-22T08:16:43.000Z,23.44
2022-08-22T08:22:05.844Z,23.44
2022-08-22T08:27:50.451Z,23.45
2022-08-22T08:33:25.528Z,23.43
2022-08-22T08:39:16.507Z,23.44
2022-08-22T08:45:19.725Z,23.45
2022-08-22T08:51:07.934Z,23.46
2022-08-22T08:56:55.983Z,23.47
2022-08-22T09:02:36.795Z,23.49
2022-08-22T09:08:34.209Z,23.53
2022-08-22T09:14:27.002Z,23.56
2022-08-22T09:20:00.612Z,23.60
2022-08-22T09:25:38.740Z,23.64
2022-08-22T09:31:02.726Z,23.65
2022-08-22T09:36:50.778Z,23.71
2022-08-22T09:42:30.751Z,23.72
2022-08-22T09:48:07.228Z,23.82
2022-08-22T09:53:54.817Z,23.87
2022-08-22T09:59:50.731Z,23.90
2022-08-22T10:05:35.133Z,23.92
2022-08-22T10:11:13.751Z,23.95
2022-08-22T10:16:47.533Z,23.99
2022-08-22T10:22:15.900Z,24.00
2022-08-22T10:27:40.407Z,24.02
2022-08-22T10:33:20.047Z,24.04
2022-08-22T10:38:49.337Z,24.05
2022-08-22T10:44:38.023Z,24.07
2022-08-22T10:50:31.057Z,24.09
2022-08-22T10:56:03.855Z,24.08
2022-08-22T11:01:37.530Z,24.11
2022-08-22T11:07:35.533Z,24.16
2022-08-22T11:13:16.049Z,24.18
2022-08-22T11:19:02.448Z,24.20
2022-08-22T11:24:35.385Z,24.19
2022-08-22T11:30:02.149Z,24.18
2022-08-22T11:35:31.960Z,24.18
2022-08-22T11:40:59.465Z,24.18
2022-08-22T11:46:27.397Z,24.18
2022-08-22T11:52:10.555Z,24.17
2022-08-22T11:57:35.336Z,24.17
2022-08-22T12:03:17.497Z,24.17
2022-08-22T12:08:46.340Z,24.18
2022-08-22T12:14:56.277Z,24.17
2022-08-22T12:20:28.234Z,24.15
2022-08-22T12:25:49.991Z,24.15
2022-08-22T12:31:34.126Z,24.15
2022-08-22T12:37:03.759Z,24.11
2022-08-22T12:42:57.381Z,24.14
2022-08-22T12:48:34.012Z,24.15
2022-08-22T12:54:39.991Z,24.15
2022-08-22T13:00:23.054Z,24.17
2022-08-22T13:05:52.114Z,24.16
2022-08-22T13:11:23.593Z,24.16
2022-08-22T13:16:51.209Z,24.17
2022-08-22T13:22:19.696Z,24.15
2022-08-22T13:27:51.085Z,24.14
2022-08-22T13:33:22.274Z,24.14
2022-08-22T13:38:57.875Z,24.14
2022-08-22T13:44:30.540Z,24.15
2022-08-22T13:50:05.369Z,24.14
2022-08-22T13:55:49.091Z,24.14
2022-08-22T14:01:40.663Z,24.14
2022-08-22T14:07:02.947Z,24.10
2022-08-22T14:12:33.542Z,24.10
2022-08-22T14:18:01.774Z,24.11
2022-08-22T14:23:29.469Z,24.10
2022-08-22T14:28:56.739Z,24.08
2022-08-22T14:34:18.955Z,24.09
2022-08-22T14:40:03.836Z,24.12
2022-08-22T14:45:33.125Z,24.13
2022-08-22T14:50:59.913Z,24.12
2022-08-22T14:56:25.114Z,24.11
2022-08-22T15:01:57.208Z,24.10
2022-08-22T15:07:29.765Z,24.11
2022-08-22T15:12:58.800Z,24.09
2022-08-22T15:18:23.381Z,24.06
2022-08-22T15:23:47.015Z,24.04
2022-08-22T15:29:17.841Z,24.03
2022-08-22T15:34:46.055Z,24.03
2022-08-22T15:40:12.054Z,24.05
2022-08-22T15:45:37.519Z,24.08
2022-08-22T15:51:13.540Z,24.11
2022-08-22T15:56:46.246Z,24.10
2022-08-22T16:02:20.635Z,24.11
2022-08-22T16:07:51.227Z,24.10
2022-08-22T16:13:29.538Z,24.15
2022-08-22T16:18:51.357Z,24.14
2022-08-22T16:24:12.971Z,24.13
2022-08-22T16:29:41.473Z,24.13
2022-08-22T16:35:04.061Z,24.14
2022-08-22T16:40:26.606Z,24.14
2022-08-22T16:45:51.252Z,24.12
2022-08-22T16:51:18.861Z,24.10
2022-08-22T16:57:09.221Z,24.11
2022-08-22T17:02:52.901Z,24.10
2022-08-22T17:08:14.518Z,24.10
2022-08-22T17:13:36.126Z,24.07
2022-08-22T17:19:03.658Z,24.09
2022-08-22T17:24:48.810Z,24.11
2022-08-22T17:30:21.284Z,24.10
2022-08-22T17:35:55.749Z,24.14
2022-08-22T17:41:32.216Z,24.15
2022-08-22T17:47:17.013Z,24.15
2022-08-22T17:52:48.527Z,24.14
2022-08-22T17:58:36.066Z,24.10
2022-08-22T18:04:01.610Z,24.07
2022-08-22T18:09:36.958Z,24.03
2022-08-22T18:15:46.307Z,24.00
2022-08-22T18:21:25.076Z,24.00
2022-08-22T18:27:02.423Z,23.98
2022-08-22T18:32:41.951Z,23.96
2022-08-22T18:38:19.409Z,23.93
2022-08-22T18:43:45.227Z,23.92
2022-08-22T18:49:19.797Z,23.90
2022-08-22T18:54:44.562Z,23.91
2022-08-22T19:00:18.929Z,23.93
2022-08-22T19:06:25.634Z,23.94
2022-08-22T19:12:19.158Z,23.96
2022-08-22T19:17:59.350Z,23.97
2022-08-22T19:23:33.171Z,23.98
2022-08-22T19:29:18.847Z,23.97
2022-08-22T19:34:47.871Z,23.94
2022-08-22T19:40:11.831Z,23.93
2022-08-22T19:45:39.908Z,23.91
2022-08-22T19:51:21.720Z,23.90
2022-08-22T19:57:07.050Z,23.88
2022-08-22T20:02:49.987Z,23.85
2022-08-22T20:08:50.368Z,23.85
2022-08-22T20:14:31.133Z,23.84
2022-08-22T20:25:50.794Z,23.84
2022-08-22T20:31:21.747Z,23.83
2022-08-22T20:36:45.797Z,23.81
2022-08-22T20:42:14.085Z,23.81
2022-08-22T20:47:41.369Z,23.80
2022-08-22T20:53:22.173Z,23.80
2022-08-22T20:58:48.965Z,23.79
2022-08-22T21:04:11.609Z,23.79
2022-08-22T21:09:52.138Z,23.79
2022-08-22T21:15:13.808Z,23.78
2022-08-22T21:20:37.521Z,23.79
2022-08-22T21:26:08.836Z,23.78
2022-08-22T21:31:35.497Z,23.78
2022-08-22T21:37:01.818Z,23.76
2022-08-22T21:42:34.492Z,23.77
2022-08-22T21:47:56.835Z,23.75
2022-08-22T21:53:28.470Z,23.76
2022-08-22T21:58:50.171Z,23.74
2022-08-22T22:04:15.033Z,23.74
2022-08-22T22:09:36.939Z,23.74
2022-08-22T22:14:58.791Z,23.73
2022-08-22T22:20:22.815Z,23.74
2022-08-22T22:25:45.890Z,23.72
2022-08-22T22:31:07.916Z,23.73
2022-08-22T22:36:29.677Z,23.72
2022-08-22T22:41:51.500Z,23.72
2022-08-22T22:47:13.670Z,23.71
2022-08-22T22:52:40.676Z,23.69
2022-08-22T22:58:03.380Z,23.69
2022-08-22T23:03:26.915Z,23.68
2022-08-22T23:08:48.945Z,23.69
2022-08-22T23:14:10.750Z,23.68
2022-08-22T23:19:32.519Z,23.68
2022-08-22T23:24:54.235Z,23.68
2022-08-22T23:30:15.947Z,23.66
2022-08-22T23:35:37.735Z,23.67
2022-08-22T23:41:09.557Z,23.68
2022-08-22T23:46:31.600Z,23.65
2022-08-22T23:51:55.930Z,23.65
2022-08-22T23:57:17.804Z,23.64
